This is the latest recevied weather packets stored in our database for station/object DG0PX-12. If no packets are shown the sender has not sent any weather packets the latest 10 day(s).
| Time | Temp. | Humidity | Pressure | Rain* | Wind** | Luminosity | Snow |
|---|---|---|---|---|---|---|---|
| 1777599871 | 2.78° C | 59% | 958.1 hPa | - | - | - | - |
| 1777598971 | 2.78° C | 60% | 958.1 hPa | - | - | - | - |
| 1777598071 | 2.78° C | 60% | 958.1 hPa | - | - | - | - |
| 1777597171 | 2.22° C | 62% | 958.2 hPa | - | - | - | - |
| 1777596270 | 3.89° C | 56% | 958.3 hPa | - | - | - | - |
| 1777595370 | 3.89° C | 57% | 958.2 hPa | - | - | - | - |
| 1777594470 | 3.33° C | 60% | 958.2 hPa | - | - | - | - |
| 1777593570 | 3.89° C | 56% | 958.1 hPa | - | - | - | - |
| 1777592670 | 3.89° C | 56% | 958.3 hPa | - | - | - | - |
| 1777591770 | 5.56° C | 52% | 958.2 hPa | - | - | - | - |
| 1777590870 | 4.44° C | 53% | 958.3 hPa | - | - | - | - |
| 1777589970 | 5° C | 47% | 958.2 hPa | - | - | - | - |
| 1777589070 | 5° C | 50% | 958.3 hPa | - | - | - | - |
| 1777588169 | 5° C | 51% | 958.3 hPa | - | - | - | - |
| 1777587269 | 4.44° C | 52% | 958.3 hPa | - | - | - | - |
| 1777586369 | 5° C | 52% | 958.3 hPa | - | - | - | - |
| 1777585469 | 5.56° C | 48% | 958.3 hPa | - | - | - | - |
| 1777584568 | 6.11° C | 50% | 958.3 hPa | - | - | - | - |
| 1777583668 | 6.11° C | 48% | 958.3 hPa | - | - | - | - |
| 1777582768 | 6.67° C | 42% | 958.3 hPa | - | - | - | - |
| 1777581868 | 7.22° C | 43% | 958.3 hPa | - | - | - | - |
| 1777580967 | 7.22° C | 42% | 958.3 hPa | - | - | - | - |
| 1777580067 | 7.78° C | 38% | 958.5 hPa | - | - | - | - |
| 1777579167 | 8.89° C | 33% | 958.6 hPa | - | - | - | - |
| 1777578267 | 9.44° C | 31% | 958.2 hPa | - | - | - | - |
* Rain since midnight (hover to see other rain measurements)
** Current wind speed in m/s (hover to see current wind gust speed)